createdAt,value
2022-08-01T00:03:53.236Z,99868.03
2022-08-01T00:08:57.529Z,99878.31
2022-08-01T00:14:00.318Z,99875.06
2022-08-01T00:19:03.236Z,99878.09
2022-08-01T00:24:07.761Z,99871.97
2022-08-01T00:30:10.686Z,99872.25
2022-08-01T00:34:39.891Z,99857.28
2022-08-01T00:39:44.210Z,99856.56
2022-08-01T00:44:46.993Z,99862.16
2022-08-01T00:49:49.837Z,99867.75
2022-08-01T00:54:54.140Z,99875.31
2022-08-01T00:59:57.170Z,99879.19
2022-08-01T01:05:01.639Z,99878.78
2022-08-01T01:10:13.498Z,99867.09
2022-08-01T01:15:20.391Z,99858.06
2022-08-01T01:20:30.159Z,99859.22
2022-08-01T01:25:56.534Z,99854.97
2022-08-01T01:31:02.901Z,99869.66
2022-08-01T01:36:11.769Z,99865.41
2022-08-01T01:41:17.630Z,99868.25
2022-08-01T01:46:27.906Z,99864.13
2022-08-01T01:51:31.672Z,99862.53
2022-08-01T01:56:36.715Z,99852.97
2022-08-01T02:02:06.109Z,99863.28
2022-08-01T02:07:06.182Z,99862.56
2022-08-01T02:12:12.315Z,99870.00
2022-08-01T02:17:19.249Z,99870.59
2022-08-01T02:22:29.680Z,99878.03
2022-08-01T02:27:39.092Z,99886.16
2022-08-01T02:32:46.525Z,99874.59
2022-08-01T02:37:50.674Z,99871.03
2022-08-01T02:42:56.660Z,99875.91
2022-08-01T02:48:11.877Z,99875.19
2022-08-01T02:53:16.648Z,99876.34
2022-08-01T02:58:22.200Z,99869.50
2022-08-01T03:03:34.537Z,99879.66
2022-08-01T03:08:39.618Z,99881.50
2022-08-01T03:13:45.694Z,99882.63
2022-08-01T03:18:50.837Z,99890.06
2022-08-01T03:23:58.027Z,99893.63
2022-08-01T03:29:04.076Z,99897.06
2022-08-01T03:34:08.970Z,99898.44
2022-08-01T03:39:14.094Z,99904.97
2022-08-01T03:44:20.015Z,99911.00
2022-08-01T03:49:31.111Z,99917.56
2022-08-01T03:54:37.614Z,99916.16
2022-08-01T03:59:41.669Z,99915.97
2022-08-01T04:04:46.654Z,99915.78
2022-08-01T04:09:49.395Z,99918.16
2022-08-01T04:14:52.696Z,99916.47
2022-08-01T04:19:57.548Z,99919.81
2022-08-01T04:25:02.657Z,99929.72
2022-08-01T04:30:07.623Z,99939.53
2022-08-01T04:35:23.588Z,99941.97
2022-08-01T04:40:41.980Z,99951.19
2022-08-01T04:45:46.399Z,99950.53
2022-08-01T04:50:50.721Z,99954.06
2022-08-01T04:55:56.579Z,99962.53
2022-08-01T05:00:59.275Z,99958.97
2022-08-01T05:06:03.383Z,99962.53
2022-08-01T05:11:06.162Z,99966.47
2022-08-01T05:16:08.895Z,99969.66
2022-08-01T05:21:13.088Z,99970.53
2022-08-01T05:26:15.796Z,99972.84
2022-08-01T05:31:18.735Z,99981.50
2022-08-01T05:36:22.861Z,99972.81
2022-08-01T05:41:25.680Z,99959.56
2022-08-01T05:46:28.435Z,99966.06
2022-08-01T05:51:32.609Z,99968.09
2022-08-01T05:56:35.337Z,99970.41
2022-08-01T06:01:38.179Z,99966.09
2022-08-01T06:06:42.490Z,99965.72
2022-08-01T06:11:45.177Z,99971.44
2022-08-01T06:16:47.979Z,99973.06
2022-08-01T06:21:52.091Z,99972.19
2022-08-01T06:26:54.805Z,99976.72
2022-08-01T06:31:57.564Z,99984.06
2022-08-01T06:37:01.569Z,99975.88
2022-08-01T06:42:10.366Z,99989.44
2022-08-01T06:47:13.176Z,99995.41
2022-08-01T06:52:17.885Z,99991.22
2022-08-01T06:57:21.041Z,99983.03
2022-08-01T07:02:24.201Z,99991.00
2022-08-01T07:07:28.759Z,99993.47
2022-08-01T07:12:31.782Z,100001.66
2022-08-01T07:17:34.661Z,100003.16
2022-08-01T07:22:38.820Z,100008.44
2022-08-01T07:27:41.639Z,100000.13
2022-08-01T07:32:44.490Z,99999.03
2022-08-01T07:37:49.506Z,100001.38
2022-08-01T07:42:52.460Z,100006.75
2022-08-01T07:47:55.378Z,100007.38
2022-08-01T07:52:59.700Z,100011.56
2022-08-01T07:58:02.736Z,100004.97
2022-08-01T08:03:05.700Z,100001.09
2022-08-01T08:13:13.934Z,100012.41
2022-08-01T08:18:16.722Z,100022.66
2022-08-01T08:23:42.252Z,100032.00
2022-08-01T08:28:47.348Z,100025.78
2022-08-01T08:33:50.147Z,100033.59
2022-08-01T08:38:54.317Z,100021.84
2022-08-01T08:43:58.426Z,100025.28
2022-08-01T08:49:03.218Z,100028.25
2022-08-01T08:54:09.756Z,100030.16
2022-08-01T08:59:14.704Z,100033.63
2022-08-01T09:04:17.406Z,100034.56
2022-08-01T09:09:21.601Z,100039.25
2022-08-01T09:14:26.405Z,100048.38
2022-08-01T09:19:40.064Z,100049.47
2022-08-01T09:24:59.661Z,100042.19
2022-08-01T09:30:14.069Z,100046.47
2022-08-01T09:35:30.115Z,100049.19
2022-08-01T09:40:49.434Z,100057.56
2022-08-01T09:45:53.704Z,100061.38
2022-08-01T09:51:04.964Z,100056.34
2022-08-01T09:56:15.169Z,100055.63
2022-08-01T10:01:18.016Z,100061.59
2022-08-01T10:06:24.880Z,100066.53
2022-08-01T10:11:36.019Z,100066.63
2022-08-01T10:16:41.240Z,100067.13
2022-08-01T10:21:58.465Z,100083.94
2022-08-01T10:27:09.058Z,100076.47
2022-08-01T10:32:15.757Z,100079.56
2022-08-01T10:37:19.121Z,100077.91
2022-08-01T10:42:24.048Z,100068.22
2022-08-01T10:47:49.869Z,100066.94
2022-08-01T10:53:15.916Z,100069.88
2022-08-01T10:58:25.990Z,100066.66
2022-08-01T11:03:56.220Z,100058.31
2022-08-01T11:09:00.167Z,100066.16
2022-08-01T11:14:08.152Z,100062.06
2022-08-01T11:19:12.334Z,100067.81
2022-08-01T11:24:15.149Z,100057.31
2022-08-01T11:29:22.346Z,100055.88
2022-08-01T11:34:54.320Z,100073.81
2022-08-01T11:40:17.497Z,100067.16
2022-08-01T11:45:21.835Z,100066.75
2022-08-01T11:50:35.268Z,100059.69
2022-08-01T11:55:38.364Z,100064.19
2022-08-01T12:00:43.985Z,100064.66
2022-08-01T12:05:49.834Z,100066.69
2022-08-01T12:10:52.701Z,100073.56
2022-08-01T12:16:11.051Z,100072.16
2022-08-01T12:21:14.016Z,100074.06
2022-08-01T12:26:25.873Z,100075.13
2022-08-01T12:31:36.666Z,100070.69
2022-08-01T12:36:39.497Z,100066.47
2022-08-01T12:41:45.188Z,100077.94
2022-08-01T12:46:49.887Z,100065.97
2022-08-01T12:51:57.564Z,100082.22
2022-08-01T12:57:00.598Z,100091.06
2022-08-01T13:02:12.113Z,100077.41
2022-08-01T13:07:14.919Z,100079.13
2022-08-01T13:12:17.758Z,100086.94
2022-08-01T13:17:33.617Z,100090.00
2022-08-01T13:22:37.223Z,100079.56
2022-08-01T13:27:40.732Z,100084.88
2022-08-01T13:33:01.804Z,100088.16
2022-08-01T13:38:04.490Z,100088.50
2022-08-01T13:43:07.214Z,100086.34
2022-08-01T13:48:13.093Z,100072.63
2022-08-01T13:53:22.328Z,100082.22
2022-08-01T13:58:25.515Z,100082.81
2022-08-01T14:03:33.922Z,100086.13
2022-08-01T14:08:36.810Z,100087.00
2022-08-01T14:13:46.626Z,100084.59
2022-08-01T14:18:51.553Z,100095.53
2022-08-01T14:23:54.328Z,100110.69
2022-08-01T14:28:57.046Z,100112.41
2022-08-01T14:34:01.226Z,100106.41
2022-08-01T14:39:04.406Z,100098.16
2022-08-01T14:44:07.255Z,100105.19
2022-08-01T14:49:11.654Z,100110.72
2022-08-01T14:54:14.560Z,100097.44
2022-08-01T14:59:21.692Z,100109.44
2022-08-01T15:04:26.617Z,100102.19
2022-08-01T15:09:29.460Z,100106.75
2022-08-01T15:14:50.430Z,100117.47
2022-08-01T15:19:56.035Z,100114.34
2022-08-01T15:25:00.754Z,100121.31
2022-08-01T15:30:04.632Z,100121.91
2022-08-01T15:35:11.015Z,100115.22
2022-08-01T15:40:14.007Z,100124.09
2022-08-01T15:45:44.530Z,100121.06
2022-08-01T15:50:43.546Z,100129.94
2022-08-01T15:55:52.018Z,100125.22
2022-08-01T16:00:55.570Z,100119.66
2022-08-01T16:05:59.845Z,100119.63
2022-08-01T16:11:03.149Z,100118.34
2022-08-01T16:16:06.262Z,100125.34
2022-08-01T16:21:11.785Z,100113.03
2022-08-01T16:26:27.026Z,100121.06
2022-08-01T16:31:53.191Z,100122.78
2022-08-01T16:36:56.234Z,100134.50
2022-08-01T16:41:59.197Z,100125.75
2022-08-01T16:47:05.278Z,100121.88
2022-08-01T16:52:10.342Z,100116.72
2022-08-01T16:57:13.451Z,100113.16
2022-08-01T17:02:16.599Z,100116.44
2022-08-01T17:07:20.790Z,100116.59
2022-08-01T17:12:23.692Z,100122.31
2022-08-01T17:17:26.769Z,100127.88
2022-08-01T17:22:30.881Z,100128.56
2022-08-01T17:27:33.723Z,100129.88
2022-08-01T17:32:36.504Z,100130.72
2022-08-01T17:37:40.914Z,100129.69
2022-08-01T17:42:43.770Z,100128.84
2022-08-01T17:47:50.907Z,100130.41
2022-08-01T17:52:55.484Z,100131.09
2022-08-01T17:57:58.571Z,100138.56
2022-08-01T18:03:01.612Z,100151.97
2022-08-01T18:08:07.829Z,100143.81
2022-08-01T18:13:10.734Z,100146.19
2022-08-01T18:18:16.733Z,100149.63
2022-08-01T18:23:22.140Z,100159.75
2022-08-01T18:28:30.972Z,100162.22
2022-08-01T18:33:36.346Z,100168.94
2022-08-01T18:38:44.329Z,100164.25
2022-08-01T18:43:48.590Z,100167.94
2022-08-01T18:48:51.487Z,100171.78
2022-08-01T18:53:57.778Z,100172.31
2022-08-01T18:59:00.563Z,100186.78
2022-08-01T19:04:03.385Z,100191.66
2022-08-01T19:09:08.245Z,100204.69
2022-08-01T19:14:11.843Z,100208.44
2022-08-01T19:19:14.789Z,100218.72
2022-08-01T19:24:33.668Z,100236.63
2022-08-01T19:29:38.638Z,100239.63
2022-08-01T19:34:48.716Z,100243.38
2022-08-01T19:39:52.850Z,100245.41
2022-08-01T19:44:56.096Z,100249.97
2022-08-01T19:49:59.174Z,100249.13
2022-08-01T19:55:04.096Z,100246.81
2022-08-01T20:00:13.198Z,100252.25
2022-08-01T20:05:30.966Z,100258.81
2022-08-01T20:10:35.706Z,100258.72
2022-08-01T20:15:39.158Z,100266.28
2022-08-01T20:20:44.550Z,100275.72
2022-08-01T20:25:54.114Z,100273.16
2022-08-01T20:31:03.525Z,100266.13
2022-08-01T20:36:12.256Z,100291.88
2022-08-01T20:41:29.792Z,100291.28
2022-08-01T20:46:32.881Z,100300.44
2022-08-01T20:51:42.324Z,100309.34
2022-08-01T20:56:55.627Z,100307.47
2022-08-01T21:02:03.014Z,100316.75
2022-08-01T21:07:19.258Z,100316.66
2022-08-01T21:12:32.420Z,100314.63
2022-08-01T21:17:46.735Z,100322.78
2022-08-01T21:23:04.515Z,100330.81
2022-08-01T21:28:08.770Z,100325.94
2022-08-01T21:33:13.725Z,100326.63
2022-08-01T21:38:17.322Z,100317.50
2022-08-01T21:43:23.306Z,100314.91
2022-08-01T21:48:27.166Z,100324.06
2022-08-01T21:53:43.385Z,100322.34
2022-08-01T21:58:55.631Z,100316.34
2022-08-01T22:04:02.194Z,100315.47
2022-08-01T22:09:07.727Z,100339.50
2022-08-01T22:14:16.216Z,100336.09
2022-08-01T22:19:29.568Z,100337.81
2022-08-01T22:24:43.219Z,100343.66
2022-08-01T22:29:48.161Z,100350.09
2022-08-01T22:34:52.248Z,100354.78
2022-08-01T22:39:58.760Z,100353.47
2022-08-01T22:45:07.177Z,100354.63
2022-08-01T22:50:17.641Z,100345.03
2022-08-01T22:55:58.707Z,100366.06
2022-08-01T23:01:07.289Z,100362.75
2022-08-01T23:06:13.290Z,100376.88
2022-08-01T23:11:16.327Z,100371.41
2022-08-01T23:16:21.356Z,100361.72
2022-08-01T23:21:24.613Z,100376.00
2022-08-01T23:26:30.429Z,100376.16
2022-08-01T23:32:06.187Z,100372.66
2022-08-01T23:36:57.275Z,100356.25
2022-08-01T23:42:04.128Z,100368.63
2022-08-01T23:47:11.190Z,100368.38
2022-08-01T23:52:20.547Z,100353.66
2022-08-01T23:57:24.573Z,100347.13
